createdAt,value
2018-05-13T00:00:56.510Z,14.67
2018-05-13T00:03:23.036Z,13.97
2018-05-13T00:05:49.326Z,14.27
2018-05-13T00:08:15.546Z,14.80
2018-05-13T00:10:41.790Z,14.40
2018-05-13T00:13:08.042Z,14.87
2018-05-13T00:15:34.266Z,14.50
2018-05-13T00:18:00.535Z,15.10
2018-05-13T00:20:26.986Z,15.50
2018-05-13T00:22:57.118Z,15.40
2018-05-13T00:25:23.678Z,16.03
2018-05-13T00:27:49.961Z,15.30
2018-05-13T00:30:16.618Z,16.80
2018-05-13T00:32:42.862Z,15.70
2018-05-13T00:35:09.663Z,15.87
2018-05-13T00:37:35.926Z,15.53
2018-05-13T00:40:02.705Z,16.50
2018-05-13T00:42:28.974Z,15.60
2018-05-13T00:44:55.878Z,16.53
2018-05-13T00:47:22.139Z,16.03
2018-05-13T00:49:48.914Z,15.50
2018-05-13T00:52:15.454Z,16.27
2018-05-13T00:54:48.942Z,14.93
2018-05-13T00:57:15.181Z,15.97
2018-05-13T00:59:41.487Z,16.07
2018-05-13T01:02:07.690Z,15.63
2018-05-13T01:04:33.973Z,15.30
2018-05-13T01:07:00.225Z,16.20
2018-05-13T01:09:26.761Z,15.43
2018-05-13T01:11:53.454Z,18.67
2018-05-13T01:14:19.701Z,14.83
2018-05-13T01:16:45.953Z,14.67
2018-05-13T01:19:12.457Z,14.97
2018-05-13T01:21:38.806Z,14.80
2018-05-13T01:24:05.350Z,14.37
2018-05-13T01:26:31.594Z,15.00
2018-05-13T01:28:57.842Z,14.17
2018-05-13T01:31:24.083Z,14.40
2018-05-13T01:33:50.322Z,15.00
2018-05-13T01:36:16.566Z,14.57
2018-05-13T01:38:43.530Z,15.37
2018-05-13T01:41:09.769Z,15.57
2018-05-13T01:43:36.026Z,14.90
2018-05-13T01:46:02.502Z,14.77
2018-05-13T01:48:29.489Z,16.23
2018-05-13T01:50:55.744Z,14.73
2018-05-13T01:53:22.030Z,15.53
2018-05-13T01:55:52.292Z,17.20
2018-05-13T01:58:18.513Z,16.03
2018-05-13T02:00:44.790Z,15.53
2018-05-13T02:03:12.355Z,15.47
2018-05-13T02:05:38.609Z,16.43
2018-05-13T02:08:05.327Z,15.73
2018-05-13T02:10:31.595Z,15.30
2018-05-13T02:12:58.106Z,13.90
2018-05-13T02:15:24.365Z,12.97
2018-05-13T02:17:50.897Z,13.17
2018-05-13T02:20:17.161Z,11.63
2018-05-13T02:22:44.172Z,11.57
2018-05-13T02:25:10.430Z,12.60
2018-05-13T02:27:36.973Z,13.27
2018-05-13T02:30:04.271Z,11.80
2018-05-13T02:32:30.503Z,12.40
2018-05-13T02:34:56.783Z,12.37
2018-05-13T02:37:23.486Z,11.80
2018-05-13T02:39:49.754Z,11.27
2018-05-13T02:42:16.218Z,12.67
2018-05-13T02:44:42.740Z,10.07
2018-05-13T02:47:09.783Z,8.13
2018-05-13T02:49:36.034Z,8.93
2018-05-13T02:52:02.658Z,7.00
2018-05-13T02:54:28.910Z,7.83
2018-05-13T02:56:55.205Z,5.57
2018-05-13T02:59:21.902Z,5.20
2018-05-13T03:01:48.257Z,6.33
2018-05-13T03:04:14.496Z,4.40
2018-05-13T03:06:40.789Z,4.10
2018-05-13T03:09:11.261Z,5.13
2018-05-13T03:11:37.738Z,6.47
2018-05-13T03:14:04.318Z,6.63
2018-05-13T03:16:31.334Z,6.63
2018-05-13T03:18:57.612Z,7.97
2018-05-13T03:21:23.917Z,6.53
2018-05-13T03:23:50.150Z,7.10
2018-05-13T03:26:17.142Z,8.67
2018-05-13T03:28:43.418Z,8.77
2018-05-13T03:31:09.937Z,9.30
2018-05-13T03:33:36.202Z,9.20
2018-05-13T03:36:02.460Z,11.77
2018-05-13T03:38:28.742Z,10.87
2018-05-13T03:40:54.983Z,10.30
2018-05-13T03:43:21.470Z,10.80
2018-05-13T03:45:47.731Z,10.83
2018-05-13T03:48:14.226Z,10.13
2018-05-13T03:50:40.469Z,10.77
2018-05-13T03:53:06.732Z,10.47
2018-05-13T03:55:32.998Z,10.60
2018-05-13T03:57:59.259Z,10.30
2018-05-13T04:00:25.556Z,9.77
2018-05-13T04:02:51.866Z,10.43
2018-05-13T04:05:18.134Z,12.10
2018-05-13T04:11:10.365Z,10.13
2018-05-13T04:13:49.317Z,9.33
2018-05-13T04:16:15.563Z,9.30
2018-05-13T04:18:41.852Z,9.80
2018-05-13T04:21:09.033Z,9.33
2018-05-13T04:23:35.293Z,9.53
2018-05-13T04:26:01.550Z,9.33
2018-05-13T04:28:27.810Z,8.30
2018-05-13T04:30:54.267Z,8.73
2018-05-13T04:33:20.502Z,8.80
2018-05-13T04:35:46.758Z,8.80
2018-05-13T04:38:13.823Z,9.33
2018-05-13T04:40:40.487Z,8.43
2018-05-13T04:43:06.739Z,8.03
2018-05-13T04:45:33.785Z,9.90
2018-05-13T04:48:00.014Z,10.07
2018-05-13T04:50:26.778Z,9.83
2018-05-13T04:52:53.010Z,10.57
2018-05-13T04:55:19.546Z,10.70
2018-05-13T04:57:45.778Z,9.43
2018-05-13T05:00:12.850Z,10.70
2018-05-13T05:02:43.021Z,10.20
2018-05-13T05:05:09.305Z,10.30
2018-05-13T05:07:35.534Z,10.83
2018-05-13T05:10:01.851Z,11.90
2018-05-13T05:12:28.107Z,13.10
2018-05-13T05:14:55.413Z,10.50
2018-05-13T05:17:21.658Z,9.93
2018-05-13T05:19:47.931Z,12.17
2018-05-13T05:22:14.366Z,9.50
2018-05-13T05:24:40.635Z,9.27
2018-05-13T05:27:06.904Z,8.50
2018-05-13T05:29:33.178Z,7.90
2018-05-13T05:31:59.450Z,7.37
2018-05-13T05:34:26.430Z,8.70
2018-05-13T05:36:52.718Z,8.80
2018-05-13T05:39:18.974Z,9.30
2018-05-13T05:41:45.610Z,8.83
2018-05-13T05:44:11.938Z,9.03
2018-05-13T05:46:38.201Z,8.60
2018-05-13T05:49:04.679Z,8.73
2018-05-13T05:51:32.498Z,8.53
2018-05-13T05:53:58.749Z,8.40
2018-05-13T05:56:25.034Z,17.13
2018-05-13T05:58:51.287Z,10.20
2018-05-13T06:01:17.683Z,10.17
2018-05-13T06:03:44.693Z,8.23
2018-05-13T06:06:11.025Z,8.17
2018-05-13T06:08:37.269Z,8.23
2018-05-13T06:11:03.998Z,8.20
2018-05-13T06:13:30.266Z,10.03
2018-05-13T06:15:57.095Z,9.07
2018-05-13T06:18:23.350Z,10.13
2018-05-13T06:20:50.017Z,10.27
2018-05-13T06:23:16.269Z,12.00
2018-05-13T06:25:43.006Z,11.73
2018-05-13T06:28:09.270Z,12.67
2018-05-13T06:30:35.538Z,14.00
2018-05-13T06:33:01.815Z,15.37
2018-05-13T06:35:28.070Z,15.20
2018-05-13T06:37:54.360Z,16.37
2018-05-13T06:40:20.607Z,36.47
2018-05-13T06:42:47.566Z,20.57
2018-05-13T06:45:13.847Z,19.97
2018-05-13T06:47:40.537Z,18.43
2018-05-13T06:50:06.841Z,19.93
2018-05-13T06:52:33.414Z,22.40
2018-05-13T06:54:59.641Z,22.57
2018-05-13T06:57:26.016Z,20.97
2018-05-13T06:59:52.171Z,19.37
2018-05-13T07:02:18.434Z,21.20
2018-05-13T07:04:44.666Z,20.67
2018-05-13T07:07:10.915Z,22.80
2018-05-13T07:09:37.200Z,23.77
2018-05-13T07:12:03.449Z,23.10
2018-05-13T07:14:29.722Z,23.47
2018-05-13T07:16:56.058Z,23.43
2018-05-13T07:19:24.852Z,25.17
2018-05-13T07:21:52.157Z,23.37
2018-05-13T07:24:18.712Z,26.87
2018-05-13T07:26:46.573Z,31.10
2018-05-13T07:29:12.888Z,30.07
2018-05-13T07:31:39.123Z,24.27
2018-05-13T07:34:05.391Z,24.00
2018-05-13T07:36:31.684Z,24.77
2018-05-13T07:38:58.202Z,26.77
2018-05-13T07:41:24.434Z,25.00
2018-05-13T07:43:50.682Z,25.57
2018-05-13T07:46:16.924Z,28.97
2018-05-13T07:48:43.292Z,24.00
2018-05-13T07:51:09.581Z,23.47
2018-05-13T07:53:35.830Z,25.27
2018-05-13T07:56:02.381Z,25.07
2018-05-13T07:58:28.670Z,25.60
2018-05-13T08:00:55.162Z,27.17
2018-05-13T08:03:21.429Z,27.70
2018-05-13T08:05:48.561Z,28.57
2018-05-13T08:08:14.866Z,30.67
2018-05-13T08:10:41.139Z,31.57
2018-05-13T08:13:07.385Z,30.77
2018-05-13T08:15:34.094Z,31.63
2018-05-13T08:18:00.329Z,32.83
2018-05-13T08:20:27.247Z,33.40
2018-05-13T08:22:53.390Z,35.23
2018-05-13T08:25:19.650Z,38.63
2018-05-13T08:27:45.895Z,38.87
2018-05-13T08:30:12.162Z,44.67
2018-05-13T08:32:38.587Z,40.00
2018-05-13T08:35:04.871Z,41.57
2018-05-13T08:37:31.153Z,41.37
2018-05-13T08:39:57.406Z,41.03
2018-05-13T08:42:24.402Z,39.53
2018-05-13T08:44:50.841Z,40.27
2018-05-13T08:47:17.104Z,38.67
2018-05-13T08:49:43.966Z,40.40
2018-05-13T08:52:10.227Z,40.30
2018-05-13T08:54:36.946Z,40.33
2018-05-13T08:57:03.361Z,39.70
2018-05-13T08:59:30.027Z,42.37
2018-05-13T09:01:57.048Z,37.90
2018-05-13T09:04:23.434Z,37.50
2018-05-13T09:06:50.029Z,38.73
2018-05-13T09:09:16.545Z,37.23
2018-05-13T09:11:42.850Z,39.23
2018-05-13T09:14:09.162Z,37.87
2018-05-13T09:16:35.473Z,41.60
2018-05-13T09:19:01.989Z,39.00
2018-05-13T09:21:28.261Z,38.37
2018-05-13T09:23:54.577Z,36.27
2018-05-13T09:26:21.081Z,39.37
2018-05-13T09:28:47.369Z,37.60
2018-05-13T09:31:14.037Z,41.00
2018-05-13T09:33:40.285Z,37.97
2018-05-13T09:36:06.513Z,52.80
2018-05-13T09:38:32.790Z,43.30
2018-05-13T09:40:59.185Z,40.40
2018-05-13T09:43:26.209Z,40.43
2018-05-13T09:45:52.687Z,40.67
2018-05-13T09:48:18.923Z,42.17
2018-05-13T09:50:45.234Z,41.60
2018-05-13T09:53:12.410Z,41.37
2018-05-13T09:55:38.659Z,45.10
2018-05-13T09:58:05.670Z,43.00
2018-05-13T10:00:32.065Z,44.80
2018-05-13T10:02:58.325Z,75.30
2018-05-13T10:05:24.583Z,52.17
2018-05-13T10:07:50.886Z,43.33
2018-05-13T10:10:17.175Z,42.57
2018-05-13T10:12:43.915Z,42.93
2018-05-13T10:15:10.158Z,41.47
2018-05-13T10:17:36.431Z,40.47
2018-05-13T10:20:02.698Z,39.43
2018-05-13T10:22:29.173Z,41.00
2018-05-13T10:24:55.482Z,47.17
2018-05-13T10:27:21.816Z,49.23
2018-05-13T10:29:48.604Z,43.23
2018-05-13T10:32:14.852Z,39.63
2018-05-13T10:34:41.305Z,40.77
2018-05-13T10:37:07.690Z,42.23
2018-05-13T10:39:35.590Z,42.47
2018-05-13T10:42:01.942Z,41.67
2018-05-13T10:44:28.970Z,40.93
2018-05-13T10:46:55.644Z,39.53
2018-05-13T10:49:22.647Z,46.03
2018-05-13T10:51:49.354Z,37.47
2018-05-13T10:54:15.626Z,39.30
2018-05-13T10:56:42.438Z,32.40
2018-05-13T10:59:08.747Z,30.50
2018-05-13T11:01:35.017Z,27.43
2018-05-13T11:04:01.283Z,29.63
2018-05-13T11:06:27.607Z,28.37
2018-05-13T11:08:54.362Z,27.70
2018-05-13T11:11:20.694Z,26.97
2018-05-13T11:13:47.833Z,28.13
2018-05-13T11:16:14.445Z,25.57
2018-05-13T11:18:40.889Z,25.10
2018-05-13T11:21:08.461Z,26.33
2018-05-13T11:23:35.450Z,27.87
2018-05-13T11:26:01.703Z,29.20
2018-05-13T11:28:28.661Z,33.40
2018-05-13T11:30:55.062Z,34.47
2018-05-13T11:33:22.290Z,32.77
2018-05-13T11:35:48.862Z,35.80
2018-05-13T11:38:15.238Z,33.83
2018-05-13T11:40:41.539Z,36.57
2018-05-13T11:43:07.777Z,35.63
2018-05-13T11:45:34.063Z,39.03
2018-05-13T11:48:01.306Z,38.57
2018-05-13T11:50:29.211Z,39.60
2018-05-13T11:52:56.649Z,36.03
2018-05-13T11:55:22.890Z,39.33
2018-05-13T11:57:49.107Z,36.50
2018-05-13T12:00:16.551Z,36.90
2018-05-13T12:02:42.789Z,40.53
2018-05-13T12:05:09.234Z,38.20
2018-05-13T12:07:35.522Z,40.60
2018-05-13T12:10:01.814Z,39.87
2018-05-13T12:12:28.592Z,73.03
2018-05-13T12:14:54.926Z,44.63
2018-05-13T12:17:21.233Z,42.27
2018-05-13T12:19:47.476Z,37.23
2018-05-13T12:22:13.753Z,36.63
2018-05-13T12:24:40.102Z,40.13
2018-05-13T12:27:06.369Z,39.83
2018-05-13T12:29:32.941Z,41.10
2018-05-13T12:31:59.818Z,38.33
2018-05-13T12:34:26.063Z,35.97
2018-05-13T12:36:52.369Z,42.03
2018-05-13T12:39:18.688Z,43.27
2018-05-13T12:41:44.950Z,36.97
2018-05-13T12:44:11.522Z,38.33
2018-05-13T12:46:38.007Z,38.20
2018-05-13T12:49:05.046Z,41.50
2018-05-13T12:51:31.306Z,37.53
2018-05-13T12:53:58.551Z,38.23
2018-05-13T12:56:24.852Z,38.90
2018-05-13T12:58:51.061Z,42.00
2018-05-13T13:01:17.774Z,40.27
2018-05-13T13:03:44.972Z,41.03
2018-05-13T13:06:11.213Z,41.30
2018-05-13T13:08:37.498Z,40.50
2018-05-13T13:11:04.182Z,42.70
2018-05-13T13:13:30.447Z,42.30
2018-05-13T13:15:56.738Z,45.00
2018-05-13T13:18:23.025Z,40.43
2018-05-13T13:20:50.274Z,38.60
2018-05-13T13:23:16.669Z,45.43
2018-05-13T13:25:43.100Z,39.23
2018-05-13T13:28:09.369Z,38.20
2018-05-13T13:30:35.723Z,36.93
2018-05-13T13:33:02.029Z,37.03
2018-05-13T13:35:28.282Z,38.43
2018-05-13T13:37:54.539Z,35.70
2018-05-13T13:40:20.790Z,35.17
2018-05-13T13:42:47.282Z,36.07
2018-05-13T13:45:14.265Z,36.57
2018-05-13T13:47:40.538Z,36.33
2018-05-13T13:50:06.889Z,37.33
2018-05-13T13:52:33.158Z,35.77
2018-05-13T13:54:59.414Z,34.67
2018-05-13T13:57:25.719Z,33.70
2018-05-13T13:59:52.006Z,34.80
2018-05-13T14:02:18.798Z,37.77
2018-05-13T14:04:45.053Z,35.97
2018-05-13T14:07:11.297Z,34.50
2018-05-13T14:09:37.713Z,40.03
2018-05-13T14:12:18.923Z,35.93
2018-05-13T14:14:45.921Z,34.57
2018-05-13T14:17:13.183Z,33.53
2018-05-13T14:19:39.435Z,36.17
2018-05-13T14:22:05.677Z,36.97
2018-05-13T14:24:32.678Z,34.70
2018-05-13T14:26:58.962Z,37.50
2018-05-13T14:29:25.798Z,39.70
2018-05-13T14:31:52.044Z,39.60
2018-05-13T14:34:18.308Z,38.47
2018-05-13T14:36:45.533Z,38.13
2018-05-13T14:39:12.258Z,37.37
2018-05-13T14:41:38.240Z,36.50
2018-05-13T14:44:05.695Z,38.60
2018-05-13T14:46:32.450Z,38.80
2018-05-13T14:48:58.713Z,41.27
2018-05-13T14:51:24.966Z,40.53
2018-05-13T14:53:51.294Z,44.70
2018-05-13T14:56:17.530Z,35.70
2018-05-13T14:58:43.989Z,36.10
2018-05-13T15:01:10.236Z,37.27
2018-05-13T15:03:36.506Z,35.87
2018-05-13T15:06:02.848Z,34.97
2018-05-13T15:08:29.718Z,34.93
2018-05-13T15:10:56.046Z,35.93
2018-05-13T15:13:22.279Z,34.47
2018-05-13T15:15:49.306Z,34.63
2018-05-13T15:18:15.901Z,36.17
2018-05-13T15:20:42.198Z,34.50
2018-05-13T15:23:08.549Z,36.47
2018-05-13T15:25:35.016Z,37.40
2018-05-13T15:28:02.242Z,62.80
2018-05-13T15:30:28.518Z,36.73
2018-05-13T15:32:54.757Z,35.50
2018-05-13T15:35:21.034Z,38.33
2018-05-13T15:37:47.509Z,38.33
2018-05-13T15:40:13.790Z,36.23
2018-05-13T15:42:40.134Z,38.30
2018-05-13T15:45:06.896Z,43.47
2018-05-13T15:47:33.175Z,45.43
2018-05-13T15:49:59.473Z,39.03
2018-05-13T15:52:25.779Z,37.77
2018-05-13T15:54:53.274Z,39.80
2018-05-13T15:57:19.550Z,38.17
2018-05-13T15:59:46.135Z,37.17
2018-05-13T16:02:12.408Z,37.83
2018-05-13T16:04:38.718Z,38.67
2018-05-13T16:07:06.501Z,42.47
2018-05-13T16:09:32.775Z,40.00
2018-05-13T16:11:59.045Z,44.23
2018-05-13T16:14:25.526Z,46.93
2018-05-13T16:16:51.833Z,44.93
2018-05-13T16:19:18.378Z,44.13
2018-05-13T16:21:44.689Z,40.20
2018-05-13T16:24:10.930Z,47.17
2018-05-13T16:26:37.249Z,45.00
2018-05-13T16:29:03.569Z,47.93
2018-05-13T16:31:29.906Z,48.47
2018-05-13T16:33:57.877Z,48.33
2018-05-13T16:36:24.139Z,49.90
2018-05-13T16:38:50.395Z,53.50
2018-05-13T16:41:16.926Z,50.93
2018-05-13T16:43:43.195Z,48.37
2018-05-13T16:46:09.442Z,47.83
2018-05-13T16:48:35.698Z,45.50
2018-05-13T16:51:02.330Z,45.30
2018-05-13T16:53:28.586Z,46.67
2018-05-13T16:55:55.407Z,46.37
2018-05-13T16:58:21.677Z,50.73
2018-05-13T17:00:48.010Z,50.07
2018-05-13T17:03:14.265Z,64.13
2018-05-13T17:05:40.510Z,50.87
2018-05-13T17:08:06.775Z,48.57
2018-05-13T17:10:33.021Z,49.77
2018-05-13T17:12:59.590Z,49.90
2018-05-13T17:15:26.014Z,49.30
2018-05-13T17:17:52.265Z,48.27
2018-05-13T17:20:18.757Z,52.97
2018-05-13T17:22:45.004Z,51.90
2018-05-13T17:25:11.565Z,52.83
2018-05-13T17:27:38.133Z,52.83
2018-05-13T17:30:04.542Z,50.17
2018-05-13T17:32:30.783Z,55.27
2018-05-13T17:34:57.098Z,49.23
2018-05-13T17:37:24.166Z,54.73
2018-05-13T17:39:50.358Z,50.93
2018-05-13T17:42:16.582Z,55.70
2018-05-13T17:44:42.881Z,52.60
2018-05-13T17:50:38.724Z,55.07
2018-05-13T17:53:05.760Z,54.47
2018-05-13T17:55:32.000Z,49.57
2018-05-13T17:57:58.230Z,51.80
2018-05-13T18:00:24.480Z,50.77
2018-05-13T18:02:50.733Z,49.40
2018-05-13T18:05:17.729Z,47.57
2018-05-13T18:07:44.190Z,51.87
2018-05-13T18:10:10.502Z,48.03
2018-05-13T18:12:36.810Z,50.40
2018-05-13T18:15:03.305Z,50.27
2018-05-13T18:17:29.550Z,51.07
2018-05-13T18:19:56.133Z,59.70
2018-05-13T18:22:22.373Z,53.63
2018-05-13T18:24:48.725Z,53.47
2018-05-13T18:27:14.963Z,58.23
2018-05-13T18:29:41.238Z,51.47
2018-05-13T18:32:07.847Z,53.97
2018-05-13T18:34:34.092Z,55.73
2018-05-13T18:37:00.682Z,49.27
2018-05-13T18:39:27.417Z,55.00
2018-05-13T18:41:53.642Z,53.50
2018-05-13T18:44:19.874Z,54.53
2018-05-13T18:46:46.138Z,61.10
2018-05-13T18:49:12.430Z,52.80
2018-05-13T18:51:39.172Z,55.63
2018-05-13T18:54:05.473Z,49.73
2018-05-13T18:56:31.742Z,52.90
2018-05-13T18:58:59.355Z,51.87
2018-05-13T19:01:25.666Z,52.77
2018-05-13T19:03:51.927Z,53.17
2018-05-13T19:06:19.133Z,52.10
2018-05-13T19:08:45.380Z,69.10
2018-05-13T19:11:11.690Z,53.97
2018-05-13T19:13:37.953Z,52.80
2018-05-13T19:16:04.245Z,53.40
2018-05-13T19:18:30.503Z,55.97
2018-05-13T19:20:56.778Z,55.47
2018-05-13T19:23:23.757Z,58.67
2018-05-13T19:25:51.229Z,52.13
2018-05-13T19:28:17.462Z,57.10
2018-05-13T19:30:43.745Z,59.33
2018-05-13T19:33:10.399Z,186.03
2018-05-13T19:35:36.658Z,92.57
2018-05-13T19:38:02.986Z,56.93
2018-05-13T19:40:29.249Z,53.13
2018-05-13T19:42:56.295Z,58.10
2018-05-13T19:45:22.906Z,59.70
2018-05-13T19:47:49.234Z,58.47
2018-05-13T19:50:15.461Z,54.43
2018-05-13T19:52:42.083Z,61.67
2018-05-13T19:55:08.322Z,53.90
2018-05-13T19:57:34.600Z,51.00
2018-05-13T20:00:00.899Z,51.97
2018-05-13T20:02:27.172Z,56.50
2018-05-13T20:04:53.418Z,57.77
2018-05-13T20:07:19.690Z,55.23
2018-05-13T20:09:46.626Z,52.40
2018-05-13T20:12:12.902Z,51.73
2018-05-13T20:14:39.214Z,53.67
2018-05-13T20:17:06.118Z,57.57
2018-05-13T20:19:32.746Z,49.17
2018-05-13T20:22:00.122Z,50.43
2018-05-13T20:24:26.391Z,47.97
2018-05-13T20:26:52.810Z,48.40
2018-05-13T20:29:19.446Z,49.90
2018-05-13T20:31:45.697Z,51.67
2018-05-13T20:34:12.009Z,49.10
2018-05-13T20:36:38.250Z,49.20
2018-05-13T20:39:04.572Z,49.07
2018-05-13T20:41:30.894Z,53.53
2018-05-13T20:43:57.154Z,51.67
2018-05-13T20:46:23.480Z,49.83
2018-05-13T20:48:49.763Z,47.50
2018-05-13T20:51:16.623Z,52.57
2018-05-13T20:53:42.872Z,51.33
2018-05-13T20:56:09.590Z,49.17
2018-05-13T20:58:35.902Z,47.47
2018-05-13T21:01:02.470Z,44.87
2018-05-13T21:03:28.746Z,49.83
2018-05-13T21:05:55.314Z,46.70
2018-05-13T21:08:21.569Z,45.47
2018-05-13T21:10:47.827Z,44.90
2018-05-13T21:13:14.111Z,45.10
2018-05-13T21:15:40.430Z,48.60
2018-05-13T21:18:06.697Z,41.63
2018-05-13T21:20:33.285Z,44.10
2018-05-13T21:22:59.518Z,45.17
2018-05-13T21:25:25.817Z,40.57
2018-05-13T21:27:52.066Z,44.07
2018-05-13T21:30:18.740Z,44.27
2018-05-13T21:32:44.970Z,43.20
2018-05-13T21:35:11.259Z,42.47
2018-05-13T21:37:37.773Z,48.13
2018-05-13T21:40:04.051Z,41.00
2018-05-13T21:42:30.318Z,45.80
2018-05-13T21:44:56.618Z,44.43
2018-05-13T21:47:22.877Z,44.27
2018-05-13T21:49:49.118Z,45.43
2018-05-13T21:52:16.629Z,46.20
2018-05-13T21:54:42.890Z,43.47
2018-05-13T21:57:09.138Z,38.57
2018-05-13T21:59:36.786Z,42.40
2018-05-13T22:02:03.314Z,43.07
2018-05-13T22:04:29.602Z,41.97
2018-05-13T22:06:56.106Z,38.07
2018-05-13T22:09:23.089Z,41.30
2018-05-13T22:11:49.315Z,41.93
2018-05-13T22:14:15.598Z,41.23
2018-05-13T22:16:41.858Z,43.77
2018-05-13T22:19:08.387Z,45.67
2018-05-13T22:21:34.612Z,42.03
2018-05-13T22:24:00.875Z,44.33
2018-05-13T22:26:27.129Z,46.07
2018-05-13T22:28:55.002Z,45.50
2018-05-13T22:31:21.272Z,45.27
2018-05-13T22:33:47.726Z,46.57
2018-05-13T22:36:14.717Z,53.20
2018-05-13T22:38:41.018Z,54.90
2018-05-13T22:41:07.330Z,53.30
2018-05-13T22:43:33.973Z,54.30
2018-05-13T22:46:00.993Z,51.07
2018-05-13T22:48:27.224Z,57.83
2018-05-13T22:50:53.472Z,56.70
2018-05-13T22:53:19.994Z,54.63
2018-05-13T22:55:46.264Z,54.77
2018-05-13T22:58:13.122Z,59.37
2018-05-13T23:00:39.405Z,55.63
2018-05-13T23:03:06.194Z,56.73
2018-05-13T23:05:32.518Z,58.87
2018-05-13T23:07:58.910Z,60.83
2018-05-13T23:10:25.223Z,59.10
2018-05-13T23:12:52.134Z,61.80
2018-05-13T23:15:18.390Z,59.40
2018-05-13T23:17:45.121Z,60.07
2018-05-13T23:20:11.373Z,61.17
2018-05-13T23:22:37.625Z,60.23
2018-05-13T23:25:03.970Z,59.40
2018-05-13T23:27:30.234Z,62.97
2018-05-13T23:29:56.497Z,63.23
2018-05-13T23:32:23.222Z,67.20
2018-05-13T23:34:49.506Z,64.97
2018-05-13T23:37:15.983Z,66.67
2018-05-13T23:39:42.263Z,65.13
2018-05-13T23:42:08.549Z,69.47
2018-05-13T23:44:34.793Z,69.33
2018-05-13T23:47:01.056Z,69.50
2018-05-13T23:49:27.334Z,70.17
2018-05-13T23:51:53.586Z,70.23
2018-05-13T23:54:20.516Z,67.83
2018-05-13T23:56:47.318Z,70.57
2018-05-13T23:59:13.578Z,67.47
